sensor_id;sensor_type;location;lat;lon;timestamp;temperature;humidity
3727;DHT22;1879;45.876;12.300;2022-11-23T00:01:12;10.50;99.90
3727;DHT22;1879;45.876;12.300;2022-11-23T00:03:40;10.40;99.90
3727;DHT22;1879;45.876;12.300;2022-11-23T00:06:07;10.40;99.90
3727;DHT22;1879;45.876;12.300;2022-11-23T00:08:34;10.50;99.90
3727;DHT22;1879;45.876;12.300;2022-11-23T00:11:01;10.60;99.90
3727;DHT22;1879;45.876;12.300;2022-11-23T00:13:28;10.60;99.90
3727;DHT22;1879;45.876;12.300;2022-11-23T00:15:56;10.60;99.90
3727;DHT22;1879;45.876;12.300;2022-11-23T00:18:23;10.40;99.90
3727;DHT22;1879;45.876;12.300;2022-11-23T00:20:50;10.40;99.90
3727;DHT22;1879;45.876;12.300;2022-11-23T00:23:17;10.40;99.90
3727;DHT22;1879;45.876;12.300;2022-11-23T00:25:44;10.40;99.90
3727;DHT22;1879;45.876;12.300;2022-11-23T00:28:11;10.40;99.90
3727;DHT22;1879;45.876;12.300;2022-11-23T00:30:38;10.40;99.90
3727;DHT22;1879;45.876;12.300;2022-11-23T00:33:07;10.40;99.90
3727;DHT22;1879;45.876;12.300;2022-11-23T00:35:34;10.40;99.90
3727;DHT22;1879;45.876;12.300;2022-11-23T00:38:01;10.40;99.90
3727;DHT22;1879;45.876;12.300;2022-11-23T00:40:28;10.30;99.90
3727;DHT22;1879;45.876;12.300;2022-11-23T00:42:55;10.30;99.90
3727;DHT22;1879;45.876;12.300;2022-11-23T00:45:22;10.30;99.90
3727;DHT22;1879;45.876;12.300;2022-11-23T00:47:49;10.30;99.90
3727;DHT22;1879;45.876;12.300;2022-11-23T00:50:20;10.20;99.90
3727;DHT22;1879;45.876;12.300;2022-11-23T00:52:47;10.20;99.90
3727;DHT22;1879;45.876;12.300;2022-11-23T00:55:14;10.20;99.90
3727;DHT22;1879;45.876;12.300;2022-11-23T00:57:41;10.20;99.90
3727;DHT22;1879;45.876;12.300;2022-11-23T01:00:09;10.10;99.90
3727;DHT22;1879;45.876;12.300;2022-11-23T01:02:37;10.10;99.90
3727;DHT22;1879;45.876;12.300;2022-11-23T01:05:04;10.10;99.90
3727;DHT22;1879;45.876;12.300;2022-11-23T01:07:32;10.20;99.90
3727;DHT22;1879;45.876;12.300;2022-11-23T01:09:59;10.20;99.90
3727;DHT22;1879;45.876;12.300;2022-11-23T01:12:27;10.10;99.90
3727;DHT22;1879;45.876;12.300;2022-11-23T01:14:55;10.10;99.90
3727;DHT22;1879;45.876;12.300;2022-11-23T01:17:21;10.10;99.90
3727;DHT22;1879;45.876;12.300;2022-11-23T01:19:48;10.00;99.90
3727;DHT22;1879;45.876;12.300;2022-11-23T01:22:15;10.00;99.90
3727;DHT22;1879;45.876;12.300;2022-11-23T01:24:46;10.00;99.90
3727;DHT22;1879;45.876;12.300;2022-11-23T01:27:13;10.10;99.90
3727;DHT22;1879;45.876;12.300;2022-11-23T01:29:40;10.20;99.90
3727;DHT22;1879;45.876;12.300;2022-11-23T01:32:06;10.20;99.90
3727;DHT22;1879;45.876;12.300;2022-11-23T01:34:33;10.20;99.90
3727;DHT22;1879;45.876;12.300;2022-11-23T01:37:00;10.10;99.90
3727;DHT22;1879;45.876;12.300;2022-11-23T01:39:27;10.10;99.90
3727;DHT22;1879;45.876;12.300;2022-11-23T01:41:56;10.00;99.90
3727;DHT22;1879;45.876;12.300;2022-11-23T01:44:28;10.10;99.90
3727;DHT22;1879;45.876;12.300;2022-11-23T01:46:57;10.10;99.90
3727;DHT22;1879;45.876;12.300;2022-11-23T01:49:25;10.10;99.90
3727;DHT22;1879;45.876;12.300;2022-11-23T01:51:55;10.10;99.90
3727;DHT22;1879;45.876;12.300;2022-11-23T01:54:27;10.10;99.90
3727;DHT22;1879;45.876;12.300;2022-11-23T01:57:00;10.00;99.90
3727;DHT22;1879;45.876;12.300;2022-11-23T01:59:30;9.90;99.90
3727;DHT22;1879;45.876;12.300;2022-11-23T02:01:57;9.90;99.90
3727;DHT22;1879;45.876;12.300;2022-11-23T02:04:29;9.80;99.90
3727;DHT22;1879;45.876;12.300;2022-11-23T02:06:59;9.80;99.90
3727;DHT22;1879;45.876;12.300;2022-11-23T02:09:28;9.60;99.90
3727;DHT22;1879;45.876;12.300;2022-11-23T02:11:58;9.50;99.90
3727;DHT22;1879;45.876;12.300;2022-11-23T02:14:26;9.50;99.90
3727;DHT22;1879;45.876;12.300;2022-11-23T02:16:54;9.40;99.90
3727;DHT22;1879;45.876;12.300;2022-11-23T02:19:29;9.30;99.90
3727;DHT22;1879;45.876;12.300;2022-11-23T02:21:58;9.20;99.90
3727;DHT22;1879;45.876;12.300;2022-11-23T02:24:29;9.10;99.90
3727;DHT22;1879;45.876;12.300;2022-11-23T02:27:01;9.00;99.90
3727;DHT22;1879;45.876;12.300;2022-11-23T02:29:31;9.00;99.90
3727;DHT22;1879;45.876;12.300;2022-11-23T02:31:59;9.10;99.90
3727;DHT22;1879;45.876;12.300;2022-11-23T02:34:26;9.10;99.90
3727;DHT22;1879;45.876;12.300;2022-11-23T02:36:54;9.10;99.90
3727;DHT22;1879;45.876;12.300;2022-11-23T02:39:25;9.10;99.90
3727;DHT22;1879;45.876;12.300;2022-11-23T02:41:55;9.00;99.90
3727;DHT22;1879;45.876;12.300;2022-11-23T02:44:33;9.00;99.90
3727;DHT22;1879;45.876;12.300;2022-11-23T02:47:03;9.10;99.90
3727;DHT22;1879;45.876;12.300;2022-11-23T02:49:31;9.10;99.90
3727;DHT22;1879;45.876;12.300;2022-11-23T02:51:58;9.20;99.90
3727;DHT22;1879;45.876;12.300;2022-11-23T02:54:25;9.20;99.90
3727;DHT22;1879;45.876;12.300;2022-11-23T02:56:52;9.30;99.90
3727;DHT22;1879;45.876;12.300;2022-11-23T02:59:20;9.30;99.90
3727;DHT22;1879;45.876;12.300;2022-11-23T03:01:48;9.30;99.90
3727;DHT22;1879;45.876;12.300;2022-11-23T03:04:15;9.30;99.90
3727;DHT22;1879;45.876;12.300;2022-11-23T03:06:42;9.30;99.90
3727;DHT22;1879;45.876;12.300;2022-11-23T03:09:09;9.20;99.90
3727;DHT22;1879;45.876;12.300;2022-11-23T03:11:36;9.20;99.90
3727;DHT22;1879;45.876;12.300;2022-11-23T03:14:03;9.20;99.90
3727;DHT22;1879;45.876;12.300;2022-11-23T03:16:30;9.10;99.90
3727;DHT22;1879;45.876;12.300;2022-11-23T03:18:59;9.10;99.90
3727;DHT22;1879;45.876;12.300;2022-11-23T03:21:26;9.10;99.90
3727;DHT22;1879;45.876;12.300;2022-11-23T03:23:54;9.00;99.90
3727;DHT22;1879;45.876;12.300;2022-11-23T03:26:21;9.00;99.90
3727;DHT22;1879;45.876;12.300;2022-11-23T03:28:48;9.00;99.90
3727;DHT22;1879;45.876;12.300;2022-11-23T03:31:15;9.00;99.90
3727;DHT22;1879;45.876;12.300;2022-11-23T03:33:42;9.00;99.90
3727;DHT22;1879;45.876;12.300;2022-11-23T03:36:10;9.00;99.90
3727;DHT22;1879;45.876;12.300;2022-11-23T03:38:37;8.90;99.90
3727;DHT22;1879;45.876;12.300;2022-11-23T03:41:04;8.90;99.90
3727;DHT22;1879;45.876;12.300;2022-11-23T03:43:31;8.90;99.90
3727;DHT22;1879;45.876;12.300;2022-11-23T03:45:58;8.90;99.90
3727;DHT22;1879;45.876;12.300;2022-11-23T03:48:25;8.90;99.90
3727;DHT22;1879;45.876;12.300;2022-11-23T03:50:52;9.00;99.90
3727;DHT22;1879;45.876;12.300;2022-11-23T03:53:21;9.00;99.90
3727;DHT22;1879;45.876;12.300;2022-11-23T03:55:47;9.00;99.90
3727;DHT22;1879;45.876;12.300;2022-11-23T03:58:14;9.00;99.90
3727;DHT22;1879;45.876;12.300;2022-11-23T04:00:41;9.00;99.90
3727;DHT22;1879;45.876;12.300;2022-11-23T04:03:08;9.00;99.90
3727;DHT22;1879;45.876;12.300;2022-11-23T04:05:35;9.00;99.90
3727;DHT22;1879;45.876;12.300;2022-11-23T04:08:03;9.00;99.90
3727;DHT22;1879;45.876;12.300;2022-11-23T04:10:31;9.00;99.90
3727;DHT22;1879;45.876;12.300;2022-11-23T04:12:58;9.10;99.90
3727;DHT22;1879;45.876;12.300;2022-11-23T04:15:25;9.10;99.90
3727;DHT22;1879;45.876;12.300;2022-11-23T04:17:53;9.10;99.90
3727;DHT22;1879;45.876;12.300;2022-11-23T04:20:20;9.20;99.90
3727;DHT22;1879;45.876;12.300;2022-11-23T04:22:47;9.20;99.90
3727;DHT22;1879;45.876;12.300;2022-11-23T04:25:14;9.20;99.90
3727;DHT22;1879;45.876;12.300;2022-11-23T04:27:42;9.20;99.90
3727;DHT22;1879;45.876;12.300;2022-11-23T04:30:11;9.20;99.90
3727;DHT22;1879;45.876;12.300;2022-11-23T04:32:38;9.20;99.90
3727;DHT22;1879;45.876;12.300;2022-11-23T04:35:05;9.20;99.90
3727;DHT22;1879;45.876;12.300;2022-11-23T04:37:32;9.20;99.90
3727;DHT22;1879;45.876;12.300;2022-11-23T04:39:59;9.20;99.90
3727;DHT22;1879;45.876;12.300;2022-11-23T04:42:26;9.20;99.90
3727;DHT22;1879;45.876;12.300;2022-11-23T04:44:54;9.20;99.90
3727;DHT22;1879;45.876;12.300;2022-11-23T04:47:22;9.20;99.90
3727;DHT22;1879;45.876;12.300;2022-11-23T04:49:49;9.20;99.90
3727;DHT22;1879;45.876;12.300;2022-11-23T04:52:16;9.10;99.90
3727;DHT22;1879;45.876;12.300;2022-11-23T04:54:43;9.10;99.90
3727;DHT22;1879;45.876;12.300;2022-11-23T04:57:10;9.00;99.90
3727;DHT22;1879;45.876;12.300;2022-11-23T04:59:37;9.00;99.90
3727;DHT22;1879;45.876;12.300;2022-11-23T05:02:09;8.90;99.90
3727;DHT22;1879;45.876;12.300;2022-11-23T05:04:36;9.00;99.90
3727;DHT22;1879;45.876;12.300;2022-11-23T05:07:03;8.90;99.90
3727;DHT22;1879;45.876;12.300;2022-11-23T05:09:31;8.90;99.90
3727;DHT22;1879;45.876;12.300;2022-11-23T05:11:58;8.90;99.90
3727;DHT22;1879;45.876;12.300;2022-11-23T05:14:25;8.90;99.90
3727;DHT22;1879;45.876;12.300;2022-11-23T05:16:52;8.90;99.90
3727;DHT22;1879;45.876;12.300;2022-11-23T05:19:20;8.90;99.90
3727;DHT22;1879;45.876;12.300;2022-11-23T05:21:47;8.90;99.90
3727;DHT22;1879;45.876;12.300;2022-11-23T05:24:14;8.80;99.90
3727;DHT22;1879;45.876;12.300;2022-11-23T05:26:41;8.80;99.90
3727;DHT22;1879;45.876;12.300;2022-11-23T05:29:08;8.80;99.90
3727;DHT22;1879;45.876;12.300;2022-11-23T05:31:35;8.70;99.90
3727;DHT22;1879;45.876;12.300;2022-11-23T05:34:02;8.70;99.90
3727;DHT22;1879;45.876;12.300;2022-11-23T05:36:30;8.70;99.90
3727;DHT22;1879;45.876;12.300;2022-11-23T05:38:57;8.60;99.90
3727;DHT22;1879;45.876;12.300;2022-11-23T05:41:24;8.60;99.90
3727;DHT22;1879;45.876;12.300;2022-11-23T05:43:51;8.60;99.90
3727;DHT22;1879;45.876;12.300;2022-11-23T05:46:18;8.60;99.90
3727;DHT22;1879;45.876;12.300;2022-11-23T05:48:45;8.60;99.90
3727;DHT22;1879;45.876;12.300;2022-11-23T05:51:12;8.60;99.90
3727;DHT22;1879;45.876;12.300;2022-11-23T05:53:40;8.70;99.90
3727;DHT22;1879;45.876;12.300;2022-11-23T05:56:07;8.70;99.90
3727;DHT22;1879;45.876;12.300;2022-11-23T05:58:34;8.80;99.90
3727;DHT22;1879;45.876;12.300;2022-11-23T06:01:01;8.80;99.90
3727;DHT22;1879;45.876;12.300;2022-11-23T06:03:28;8.90;99.90
3727;DHT22;1879;45.876;12.300;2022-11-23T06:05:58;8.90;99.90
3727;DHT22;1879;45.876;12.300;2022-11-23T06:08:25;8.90;99.90
3727;DHT22;1879;45.876;12.300;2022-11-23T06:10:54;8.80;99.90
3727;DHT22;1879;45.876;12.300;2022-11-23T06:13:20;8.80;99.90
3727;DHT22;1879;45.876;12.300;2022-11-23T06:15:47;8.70;99.90
3727;DHT22;1879;45.876;12.300;2022-11-23T06:18:14;8.70;99.90
3727;DHT22;1879;45.876;12.300;2022-11-23T06:20:41;8.70;99.90
3727;DHT22;1879;45.876;12.300;2022-11-23T06:23:08;8.70;99.90
3727;DHT22;1879;45.876;12.300;2022-11-23T06:25:35;8.70;99.90
3727;DHT22;1879;45.876;12.300;2022-11-23T06:28:05;8.60;99.90
3727;DHT22;1879;45.876;12.300;2022-11-23T06:30:32;8.60;99.90
3727;DHT22;1879;45.876;12.300;2022-11-23T06:33:02;8.50;99.90
3727;DHT22;1879;45.876;12.300;2022-11-23T06:35:30;8.50;99.90
3727;DHT22;1879;45.876;12.300;2022-11-23T06:37:57;8.60;99.90
3727;DHT22;1879;45.876;12.300;2022-11-23T06:40:28;8.60;99.90
3727;DHT22;1879;45.876;12.300;2022-11-23T06:43:00;8.60;99.90
3727;DHT22;1879;45.876;12.300;2022-11-23T06:45:28;8.60;99.90
3727;DHT22;1879;45.876;12.300;2022-11-23T06:47:55;8.70;99.90
3727;DHT22;1879;45.876;12.300;2022-11-23T06:50:22;8.70;99.90
3727;DHT22;1879;45.876;12.300;2022-11-23T06:52:53;8.60;99.90
3727;DHT22;1879;45.876;12.300;2022-11-23T06:55:21;8.70;99.90
3727;DHT22;1879;45.876;12.300;2022-11-23T06:57:48;8.60;99.90
3727;DHT22;1879;45.876;12.300;2022-11-23T07:00:16;8.60;99.90
3727;DHT22;1879;45.876;12.300;2022-11-23T07:02:50;8.60;99.90
3727;DHT22;1879;45.876;12.300;2022-11-23T07:05:17;8.60;99.90
3727;DHT22;1879;45.876;12.300;2022-11-23T07:07:45;8.60;99.90
3727;DHT22;1879;45.876;12.300;2022-11-23T07:10:12;8.70;99.90
3727;DHT22;1879;45.876;12.300;2022-11-23T07:12:39;8.60;99.90
3727;DHT22;1879;45.876;12.300;2022-11-23T07:15:07;8.70;99.90
3727;DHT22;1879;45.876;12.300;2022-11-23T07:17:37;8.70;99.90
3727;DHT22;1879;45.876;12.300;2022-11-23T07:20:07;8.80;99.90
3727;DHT22;1879;45.876;12.300;2022-11-23T07:22:35;8.90;99.90
3727;DHT22;1879;45.876;12.300;2022-11-23T07:25:02;9.00;99.90
3727;DHT22;1879;45.876;12.300;2022-11-23T07:27:29;9.10;99.90
3727;DHT22;1879;45.876;12.300;2022-11-23T07:29:56;9.20;99.90
3727;DHT22;1879;45.876;12.300;2022-11-23T07:32:23;9.20;99.90
3727;DHT22;1879;45.876;12.300;2022-11-23T07:34:50;9.30;99.90
3727;DHT22;1879;45.876;12.300;2022-11-23T07:37:18;9.30;99.90
3727;DHT22;1879;45.876;12.300;2022-11-23T07:39:45;9.40;99.90
3727;DHT22;1879;45.876;12.300;2022-11-23T07:42:12;9.50;99.90
3727;DHT22;1879;45.876;12.300;2022-11-23T07:44:39;9.60;99.90
3727;DHT22;1879;45.876;12.300;2022-11-23T07:47:06;9.70;99.90
3727;DHT22;1879;45.876;12.300;2022-11-23T07:49:33;9.70;99.90
3727;DHT22;1879;45.876;12.300;2022-11-23T07:52:00;9.90;99.90
3727;DHT22;1879;45.876;12.300;2022-11-23T07:54:29;9.90;99.90
3727;DHT22;1879;45.876;12.300;2022-11-23T07:56:56;10.00;99.90
3727;DHT22;1879;45.876;12.300;2022-11-23T07:59:23;10.10;99.90
3727;DHT22;1879;45.876;12.300;2022-11-23T08:01:49;10.20;99.90
3727;DHT22;1879;45.876;12.300;2022-11-23T08:04:16;10.20;99.90
3727;DHT22;1879;45.876;12.300;2022-11-23T08:06:46;10.20;99.90
3727;DHT22;1879;45.876;12.300;2022-11-23T08:09:13;10.30;99.90
3727;DHT22;1879;45.876;12.300;2022-11-23T08:11:41;10.40;99.90
3727;DHT22;1879;45.876;12.300;2022-11-23T08:14:08;10.40;99.90
3727;DHT22;1879;45.876;12.300;2022-11-23T08:16:35;10.50;99.90
3727;DHT22;1879;45.876;12.300;2022-11-23T08:19:02;10.50;99.90
3727;DHT22;1879;45.876;12.300;2022-11-23T08:21:29;10.60;99.90
3727;DHT22;1879;45.876;12.300;2022-11-23T08:23:56;10.60;99.90
3727;DHT22;1879;45.876;12.300;2022-11-23T08:26:23;10.60;99.90
3727;DHT22;1879;45.876;12.300;2022-11-23T08:28:51;10.60;99.90
3727;DHT22;1879;45.876;12.300;2022-11-23T08:31:18;10.70;99.90
3727;DHT22;1879;45.876;12.300;2022-11-23T08:33:46;10.70;99.90
3727;DHT22;1879;45.876;12.300;2022-11-23T08:36:12;10.70;99.90
3727;DHT22;1879;45.876;12.300;2022-11-23T08:38:40;10.70;99.90
3727;DHT22;1879;45.876;12.300;2022-11-23T08:41:07;10.80;99.90
3727;DHT22;1879;45.876;12.300;2022-11-23T08:43:34;10.90;99.90
3727;DHT22;1879;45.876;12.300;2022-11-23T08:46:03;11.00;99.90
3727;DHT22;1879;45.876;12.300;2022-11-23T08:48:30;11.00;99.90
3727;DHT22;1879;45.876;12.300;2022-11-23T08:50:58;11.00;99.90
3727;DHT22;1879;45.876;12.300;2022-11-23T08:53:25;11.10;99.90
3727;DHT22;1879;45.876;12.300;2022-11-23T08:55:52;11.10;99.90
3727;DHT22;1879;45.876;12.300;2022-11-23T08:58:19;11.20;99.90
3727;DHT22;1879;45.876;12.300;2022-11-23T09:00:46;11.30;99.90
3727;DHT22;1879;45.876;12.300;2022-11-23T09:03:15;11.30;99.90
3727;DHT22;1879;45.876;12.300;2022-11-23T09:05:42;11.30;99.90
3727;DHT22;1879;45.876;12.300;2022-11-23T09:08:09;11.30;99.90
3727;DHT22;1879;45.876;12.300;2022-11-23T09:10:36;11.50;99.90
3727;DHT22;1879;45.876;12.300;2022-11-23T09:13:03;11.60;99.90
3727;DHT22;1879;45.876;12.300;2022-11-23T09:15:30;11.60;99.90
3727;DHT22;1879;45.876;12.300;2022-11-23T09:17:57;11.60;99.90
3727;DHT22;1879;45.876;12.300;2022-11-23T09:20:26;11.70;99.90
3727;DHT22;1879;45.876;12.300;2022-11-23T09:22:54;11.70;99.90
3727;DHT22;1879;45.876;12.300;2022-11-23T09:25:21;11.70;99.90
3727;DHT22;1879;45.876;12.300;2022-11-23T09:27:49;11.80;99.90
3727;DHT22;1879;45.876;12.300;2022-11-23T09:30:22;11.80;99.90
3727;DHT22;1879;45.876;12.300;2022-11-23T09:32:48;11.70;99.90
3727;DHT22;1879;45.876;12.300;2022-11-23T09:35:16;11.70;99.90
3727;DHT22;1879;45.876;12.300;2022-11-23T09:37:44;11.70;99.90
3727;DHT22;1879;45.876;12.300;2022-11-23T09:40:14;11.80;99.90
3727;DHT22;1879;45.876;12.300;2022-11-23T09:43:03;11.90;99.90
3727;DHT22;1879;45.876;12.300;2022-11-23T09:45:37;12.00;99.90
3727;DHT22;1879;45.876;12.300;2022-11-23T09:48:17;12.10;99.90
3727;DHT22;1879;45.876;12.300;2022-11-23T09:50:48;12.10;99.90
3727;DHT22;1879;45.876;12.300;2022-11-23T09:53:21;12.20;99.90
3727;DHT22;1879;45.876;12.300;2022-11-23T09:55:50;12.30;99.90
3727;DHT22;1879;45.876;12.300;2022-11-23T09:58:19;12.40;99.90
3727;DHT22;1879;45.876;12.300;2022-11-23T10:00:49;12.40;99.90
3727;DHT22;1879;45.876;12.300;2022-11-23T10:03:18;12.50;99.90
3727;DHT22;1879;45.876;12.300;2022-11-23T10:05:56;12.50;99.90
3727;DHT22;1879;45.876;12.300;2022-11-23T10:08:36;12.60;99.90
3727;DHT22;1879;45.876;12.300;2022-11-23T10:11:23;12.70;99.90
3727;DHT22;1879;45.876;12.300;2022-11-23T10:14:03;12.80;99.90
3727;DHT22;1879;45.876;12.300;2022-11-23T10:16:36;13.00;99.90
3727;DHT22;1879;45.876;12.300;2022-11-23T10:19:11;13.20;99.30
3727;DHT22;1879;45.876;12.300;2022-11-23T10:21:51;13.40;98.50
3727;DHT22;1879;45.876;12.300;2022-11-23T10:24:29;13.50;98.30
3727;DHT22;1879;45.876;12.300;2022-11-23T10:26:57;13.40;97.70
3727;DHT22;1879;45.876;12.300;2022-11-23T10:29:29;13.40;98.30
3727;DHT22;1879;45.876;12.300;2022-11-23T10:31:56;13.40;98.00
3727;DHT22;1879;45.876;12.300;2022-11-23T10:34:35;13.40;97.80
3727;DHT22;1879;45.876;12.300;2022-11-23T10:37:08;13.30;97.60
3727;DHT22;1879;45.876;12.300;2022-11-23T10:39:37;13.30;96.90
3727;DHT22;1879;45.876;12.300;2022-11-23T10:42:17;13.30;97.30
3727;DHT22;1879;45.876;12.300;2022-11-23T10:44:46;13.20;96.40
3727;DHT22;1879;45.876;12.300;2022-11-23T10:47:36;13.30;96.90
3727;DHT22;1879;45.876;12.300;2022-11-23T10:50:24;13.20;96.50
3727;DHT22;1879;45.876;12.300;2022-11-23T10:52:53;13.20;96.80
3727;DHT22;1879;45.876;12.300;2022-11-23T10:55:25;13.40;97.40
3727;DHT22;1879;45.876;12.300;2022-11-23T10:57:53;13.50;97.50
3727;DHT22;1879;45.876;12.300;2022-11-23T11:00:22;13.50;96.80
3727;DHT22;1879;45.876;12.300;2022-11-23T11:02:51;13.40;96.60
3727;DHT22;1879;45.876;12.300;2022-11-23T11:05:30;13.50;96.50
3727;DHT22;1879;45.876;12.300;2022-11-23T11:07:59;13.60;97.00
3727;DHT22;1879;45.876;12.300;2022-11-23T11:10:39;13.90;96.50
3727;DHT22;1879;45.876;12.300;2022-11-23T11:13:28;14.40;96.00
3727;DHT22;1879;45.876;12.300;2022-11-23T11:15:58;15.80;95.80
3727;DHT22;1879;45.876;12.300;2022-11-23T11:18:28;15.70;92.40
3727;DHT22;1879;45.876;12.300;2022-11-23T11:20:58;16.10;93.10
3727;DHT22;1879;45.876;12.300;2022-11-23T11:23:25;16.10;92.70
3727;DHT22;1879;45.876;12.300;2022-11-23T11:26:04;16.70;90.70
3727;DHT22;1879;45.876;12.300;2022-11-23T11:28:35;18.50;89.40
3727;DHT22;1879;45.876;12.300;2022-11-23T11:31:19;18.30;83.20
3727;DHT22;1879;45.876;12.300;2022-11-23T11:33:54;18.90;80.60
3727;DHT22;1879;45.876;12.300;2022-11-23T11:36:24;19.50;77.60
3727;DHT22;1879;45.876;12.300;2022-11-23T11:38:53;20.80;74.90
3727;DHT22;1879;45.876;12.300;2022-11-23T11:41:23;22.40;72.50
3727;DHT22;1879;45.876;12.300;2022-11-23T11:43:55;21.90;67.30
3727;DHT22;1879;45.876;12.300;2022-11-23T11:46:28;22.90;65.60
3727;DHT22;1879;45.876;12.300;2022-11-23T11:49:05;23.30;60.70
3727;DHT22;1879;45.876;12.300;2022-11-23T11:51:35;23.00;59.60
3727;DHT22;1879;45.876;12.300;2022-11-23T11:54:11;23.90;60.00
3727;DHT22;1879;45.876;12.300;2022-11-23T11:56:44;24.60;56.70
3727;DHT22;1879;45.876;12.300;2022-11-23T11:59:15;25.60;56.60
3727;DHT22;1879;45.876;12.300;2022-11-23T12:01:53;25.20;54.00
3727;DHT22;1879;45.876;12.300;2022-11-23T12:04:26;24.30;51.60
3727;DHT22;1879;45.876;12.300;2022-11-23T12:07:02;24.90;51.50
3727;DHT22;1879;45.876;12.300;2022-11-23T12:09:35;25.40;50.10
3727;DHT22;1879;45.876;12.300;2022-11-23T12:12:12;25.30;48.30
3727;DHT22;1879;45.876;12.300;2022-11-23T12:14:41;26.20;48.60
3727;DHT22;1879;45.876;12.300;2022-11-23T12:17:19;27.00;48.50
3727;DHT22;1879;45.876;12.300;2022-11-23T12:19:56;26.60;45.70
3727;DHT22;1879;45.876;12.300;2022-11-23T12:22:35;25.80;45.20
3727;DHT22;1879;45.876;12.300;2022-11-23T12:25:23;25.90;45.00
3727;DHT22;1879;45.876;12.300;2022-11-23T12:28:04;26.40;45.40
3727;DHT22;1879;45.876;12.300;2022-11-23T12:30:39;26.90;44.70
3727;DHT22;1879;45.876;12.300;2022-11-23T12:33:42;26.90;44.10
3727;DHT22;1879;45.876;12.300;2022-11-23T12:39:12;28.20;44.60
3727;DHT22;1879;45.876;12.300;2022-11-23T12:41:48;28.30;42.70
3727;DHT22;1879;45.876;12.300;2022-11-23T12:47:39;27.20;43.70
3727;DHT22;1879;45.876;12.300;2022-11-23T12:50:17;26.00;43.40
3727;DHT22;1879;45.876;12.300;2022-11-23T12:52:59;23.70;45.00
3727;DHT22;1879;45.876;12.300;2022-11-23T12:55:35;21.70;46.40
3727;DHT22;1879;45.876;12.300;2022-11-23T12:58:06;20.40;48.60
3727;DHT22;1879;45.876;12.300;2022-11-23T13:00:40;19.50;50.10
3727;DHT22;1879;45.876;12.300;2022-11-23T13:03:33;18.50;51.00
3727;DHT22;1879;45.876;12.300;2022-11-23T13:11:56;17.30;85.00
3727;DHT22;1879;45.876;12.300;2022-11-23T13:14:31;17.20;86.10
3727;DHT22;1879;45.876;12.300;2022-11-23T13:17:13;17.10;89.40
3727;DHT22;1879;45.876;12.300;2022-11-23T13:22:42;16.60;57.00
3727;DHT22;1879;45.876;12.300;2022-11-23T13:25:20;16.40;56.90
3727;DHT22;1879;45.876;12.300;2022-11-23T13:28:01;16.80;58.00
3727;DHT22;1879;45.876;12.300;2022-11-23T13:30:32;18.50;57.60
3727;DHT22;1879;45.876;12.300;2022-11-23T13:33:02;20.40;55.30
3727;DHT22;1879;45.876;12.300;2022-11-23T13:35:52;22.10;52.70
3727;DHT22;1879;45.876;12.300;2022-11-23T13:38:27;23.60;51.40
3727;DHT22;1879;45.876;12.300;2022-11-23T13:41:01;25.00;51.80
3727;DHT22;1879;45.876;12.300;2022-11-23T13:43:28;24.70;48.40
3727;DHT22;1879;45.876;12.300;2022-11-23T13:46:18;24.80;48.20
3727;DHT22;1879;45.876;12.300;2022-11-23T13:48:48;25.00;49.00
3727;DHT22;1879;45.876;12.300;2022-11-23T13:51:24;25.20;50.10
3727;DHT22;1879;45.876;12.300;2022-11-23T13:53:55;25.80;47.80
3727;DHT22;1879;45.876;12.300;2022-11-23T13:56:31;25.50;47.60
3727;DHT22;1879;45.876;12.300;2022-11-23T13:59:24;24.70;48.60
3727;DHT22;1879;45.876;12.300;2022-11-23T14:07:53;20.70;53.60
3727;DHT22;1879;45.876;12.300;2022-11-23T14:10:22;20.20;64.30
3727;DHT22;1879;45.876;12.300;2022-11-23T14:12:54;20.10;70.10
3727;DHT22;1879;45.876;12.300;2022-11-23T14:15:24;20.10;74.10
3727;DHT22;1879;45.876;12.300;2022-11-23T14:18:09;20.00;75.70
3727;DHT22;1879;45.876;12.300;2022-11-23T14:20:46;19.90;77.60
3727;DHT22;1879;45.876;12.300;2022-11-23T14:26:29;19.30;79.70
3727;DHT22;1879;45.876;12.300;2022-11-23T14:29:20;19.00;80.80
3727;DHT22;1879;45.876;12.300;2022-11-23T14:35:06;18.80;84.10
3727;DHT22;1879;45.876;12.300;2022-11-23T14:37:41;18.20;80.70
3727;DHT22;1879;45.876;12.300;2022-11-23T14:40:16;17.70;80.10
3727;DHT22;1879;45.876;12.300;2022-11-23T14:42:51;17.80;89.60
3727;DHT22;1879;45.876;12.300;2022-11-23T14:45:21;17.90;86.60
3727;DHT22;1879;45.876;12.300;2022-11-23T14:47:48;18.00;88.00
3727;DHT22;1879;45.876;12.300;2022-11-23T14:50:26;17.80;83.70
3727;DHT22;1879;45.876;12.300;2022-11-23T14:52:55;17.30;83.60
3727;DHT22;1879;45.876;12.300;2022-11-23T14:55:26;16.70;99.90
3727;DHT22;1879;45.876;12.300;2022-11-23T14:57:58;16.50;99.90
3727;DHT22;1879;45.876;12.300;2022-11-23T15:00:30;16.10;95.90
3727;DHT22;1879;45.876;12.300;2022-11-23T15:03:00;15.80;89.00
3727;DHT22;1879;45.876;12.300;2022-11-23T15:05:30;15.60;91.80
3727;DHT22;1879;45.876;12.300;2022-11-23T15:10:36;15.20;92.00
3727;DHT22;1879;45.876;12.300;2022-11-23T15:13:16;14.90;91.50
3727;DHT22;1879;45.876;12.300;2022-11-23T15:15:45;14.60;93.00
3727;DHT22;1879;45.876;12.300;2022-11-23T15:18:26;14.20;99.90
3727;DHT22;1879;45.876;12.300;2022-11-23T15:20:53;13.90;96.30
3727;DHT22;1879;45.876;12.300;2022-11-23T15:23:27;13.60;94.00
3727;DHT22;1879;45.876;12.300;2022-11-23T15:25:58;13.40;94.80
3727;DHT22;1879;45.876;12.300;2022-11-23T15:28:27;13.20;95.50
3727;DHT22;1879;45.876;12.300;2022-11-23T15:30:55;13.00;96.20
3727;DHT22;1879;45.876;12.300;2022-11-23T15:33:22;12.80;97.20
3727;DHT22;1879;45.876;12.300;2022-11-23T15:35:50;12.70;98.50
3727;DHT22;1879;45.876;12.300;2022-11-23T15:38:19;12.50;99.80
3727;DHT22;1879;45.876;12.300;2022-11-23T15:40:48;12.40;99.90
3727;DHT22;1879;45.876;12.300;2022-11-23T15:43:17;12.30;99.90
3727;DHT22;1879;45.876;12.300;2022-11-23T15:46:11;12.20;99.90
3727;DHT22;1879;45.876;12.300;2022-11-23T15:48:39;12.20;99.90
3727;DHT22;1879;45.876;12.300;2022-11-23T15:51:07;12.10;99.90
3727;DHT22;1879;45.876;12.300;2022-11-23T15:53:45;12.00;99.90
3727;DHT22;1879;45.876;12.300;2022-11-23T15:56:22;11.90;99.90
3727;DHT22;1879;45.876;12.300;2022-11-23T15:58:52;11.80;99.90
3727;DHT22;1879;45.876;12.300;2022-11-23T16:01:20;12.10;99.90
3727;DHT22;1879;45.876;12.300;2022-11-23T16:03:49;11.60;99.90
3727;DHT22;1879;45.876;12.300;2022-11-23T16:06:27;11.50;99.90
3727;DHT22;1879;45.876;12.300;2022-11-23T16:08:54;11.40;99.90
3727;DHT22;1879;45.876;12.300;2022-11-23T16:11:27;11.40;99.90
3727;DHT22;1879;45.876;12.300;2022-11-23T16:14:16;11.30;99.90
3727;DHT22;1879;45.876;12.300;2022-11-23T16:16:45;11.30;99.90
3727;DHT22;1879;45.876;12.300;2022-11-23T16:19:21;11.20;99.90
3727;DHT22;1879;45.876;12.300;2022-11-23T16:21:53;11.20;99.90
3727;DHT22;1879;45.876;12.300;2022-11-23T16:24:22;11.10;99.90
3727;DHT22;1879;45.876;12.300;2022-11-23T16:26:50;11.00;99.90
3727;DHT22;1879;45.876;12.300;2022-11-23T16:29:22;11.00;99.90
3727;DHT22;1879;45.876;12.300;2022-11-23T16:31:52;10.90;99.90
3727;DHT22;1879;45.876;12.300;2022-11-23T16:34:19;10.90;99.90
3727;DHT22;1879;45.876;12.300;2022-11-23T16:36:47;10.80;99.90
3727;DHT22;1879;45.876;12.300;2022-11-23T16:39:14;10.80;99.90
3727;DHT22;1879;45.876;12.300;2022-11-23T16:41:41;10.70;99.90